Time;durP1;ratioP1;P1;durP2;ratioP2;P2;SDS_P1;SDS_P2;PMS_P1;PMS_P2;Temp;Humidity;BMP_temperature;BMP_pressure;BME280_temperature;BME280_humidity;BME280_pressure;Samples;Min_cycle;Max_cycle;Signal;HPM_P1;HPM_P2
2024/01/20 00:00:03;;;;;;;12.33;10.00;;;4.20;91.20;;;5.64;60.97;102043.22;3083533;46;20434;-71
2024/01/20 00:02:32;;;;;;;15.40;9.20;;;4.10;91.20;;;5.53;61.59;102051.00;3083204;46;20462;-72
2024/01/20 00:05:00;;;;;;;11.73;9.53;;;4.10;91.30;;;5.54;61.63;102050.88;3083369;46;20604;-72
2024/01/20 00:07:29;;;;;;;12.80;10.20;;;4.10;91.40;;;5.53;61.74;102051.00;3083052;46;20545;-72
2024/01/20 00:09:57;;;;;;;14.50;9.83;;;4.10;91.40;;;5.54;61.65;102048.28;3083352;46;20577;-72
2024/01/20 00:12:26;;;;;;;13.43;10.33;;;4.00;91.50;;;5.53;61.39;102046.63;3083221;46;21124;-72
2024/01/20 00:14:54;;;;;;;16.77;11.10;;;4.00;91.50;;;5.52;61.75;102049.34;3083289;46;20431;-72
2024/01/20 00:17:23;;;;;;;16.50;11.40;;;4.00;91.50;;;5.51;61.88;102048.53;3082793;46;20462;-72
2024/01/20 00:19:55;;;;;;;20.80;11.83;;;3.90;91.50;;;5.49;61.73;102048.59;3082900;46;21074;-71
2024/01/20 00:22:23;;;;;;;18.33;11.90;;;3.90;91.60;;;5.48;61.80;102048.72;3082836;46;20451;-72
2024/01/20 00:24:52;;;;;;;15.17;11.80;;;3.90;91.60;;;5.44;62.00;102068.97;3083040;46;20455;-72
2024/01/20 00:27:20;;;;;;;17.77;11.63;;;3.90;91.70;;;5.43;62.13;102054.28;3082780;46;20464;-71
2024/01/20 00:29:49;;;;;;;16.60;10.90;;;3.90;91.70;;;5.45;61.92;102060.22;3083016;46;20433;-72
2024/01/20 00:32:18;;;;;;;14.63;11.03;;;3.90;91.80;;;5.45;61.95;102047.16;3082841;46;20462;-72
2024/01/20 00:34:47;;;;;;;16.90;11.80;;;3.90;91.80;;;5.45;61.93;102057.63;3082864;46;20423;-72
2024/01/20 00:37:37;;;;;;;19.67;12.53;;;3.90;91.80;;;5.42;61.70;102055.22;3082495;46;20446;-71
2024/01/20 00:40:07;;;;;;;14.30;11.00;;;3.90;91.80;;;5.40;61.96;102051.88;3082707;46;20428;-71
2024/01/20 00:42:36;;;;;;;16.53;12.37;;;3.80;91.80;;;5.40;62.17;102059.72;3082937;46;20520;-72
2024/01/20 00:45:06;;;;;;;17.57;12.50;;;3.80;91.80;;;5.39;61.92;102057.22;3082863;46;20433;-72
2024/01/20 00:47:35;;;;;;;17.17;11.53;;;3.80;91.90;;;5.38;62.26;102069.44;3082506;46;21032;-72
2024/01/20 00:50:07;;;;;;;16.10;11.30;;;3.80;92.00;;;5.39;62.07;102062.44;3082894;46;20511;-73
2024/01/20 00:52:36;;;;;;;16.47;11.93;;;3.80;92.00;;;5.38;62.35;102077.25;3082864;46;20457;-72
2024/01/20 00:55:05;;;;;;;19.17;12.97;;;3.80;92.20;;;5.40;62.51;102083.19;3082891;46;21218;-72
2024/01/20 00:57:34;;;;;;;16.77;12.23;;;3.80;92.20;;;5.42;62.38;102077.88;3081695;46;20934;-72
2024/01/20 01:00:08;;;;;;;15.70;11.73;;;3.80;92.30;;;5.40;62.43;102082.38;3082493;46;20576;-72
2024/01/20 01:02:39;;;;;;;22.00;12.80;;;3.70;92.30;;;5.37;62.56;102074.78;3082690;46;20464;-73
2024/01/20 01:05:08;;;;;;;14.77;13.10;;;3.80;92.20;;;5.35;62.45;102068.78;3082774;46;20431;-72
2024/01/20 01:07:37;;;;;;;18.33;13.47;;;3.80;92.40;;;5.33;62.55;102081.97;3082419;46;20488;-74
2024/01/20 01:10:06;;;;;;;17.63;12.90;;;3.70;92.30;;;5.32;62.64;102088.16;3082614;46;20434;-72
2024/01/20 01:12:35;;;;;;;21.00;13.00;;;3.70;92.40;;;5.33;62.71;102087.19;3082665;46;20462;-72
2024/01/20 01:15:05;;;;;;;16.53;12.67;;;3.70;92.40;;;5.30;62.50;102087.41;3082642;46;20427;-73
2024/01/20 01:17:33;;;;;;;19.87;14.13;;;3.70;92.40;;;5.25;62.95;102089.50;3082780;46;20450;-72
2024/01/20 01:20:03;;;;;;;19.70;12.40;;;3.70;92.40;;;5.24;63.08;102087.84;3082705;46;20570;-72
2024/01/20 01:22:31;;;;;;;18.80;14.03;;;3.70;92.50;;;5.23;63.05;102091.38;3082342;46;21153;-71
2024/01/20 01:25:00;;;;;;;20.33;13.07;;;3.70;92.60;;;5.24;63.21;102095.66;3082205;46;21011;-72
2024/01/20 01:27:29;;;;;;;18.73;12.43;;;3.70;92.60;;;5.21;63.49;102087.19;3081953;46;21029;-72
2024/01/20 01:29:57;;;;;;;19.57;11.97;;;3.70;92.60;;;5.20;63.41;102094.22;3082515;46;20451;-71
2024/01/20 01:32:26;;;;;;;23.37;13.50;;;3.60;92.70;;;5.19;63.53;102089.94;3082538;46;20561;-72
2024/01/20 01:34:54;;;;;;;17.37;13.47;;;3.70;92.70;;;5.18;63.16;102090.03;3082440;46;20517;-71
2024/01/20 01:37:23;;;;;;;22.33;14.63;;;3.60;92.60;;;5.15;63.38;102098.91;3081994;46;21015;-71
2024/01/20 01:39:51;;;;;;;19.03;13.53;;;3.60;92.60;;;5.11;63.44;102107.88;3082239;46;20509;-72
2024/01/20 01:42:20;;;;;;;21.20;14.17;;;3.60;92.70;;;5.08;63.99;102113.31;3082032;46;20467;-71
2024/01/20 01:44:48;;;;;;;20.37;13.23;;;3.60;92.70;;;5.05;63.62;102112.69;3082277;46;20458;-72
2024/01/20 01:47:16;;;;;;;20.47;13.67;;;3.60;92.70;;;5.01;63.50;102112.06;3081688;46;20463;-72
2024/01/20 01:49:45;;;;;;;19.43;14.90;;;3.50;92.70;;;4.98;63.81;102117.50;3082147;46;20451;-71
2024/01/20 01:52:17;;;;;;;19.17;14.23;;;3.50;92.90;;;4.96;63.66;102119.38;3082505;46;20446;-71
2024/01/20 01:54:46;;;;;;;18.23;13.17;;;3.50;92.90;;;4.96;64.04;102121.16;3082322;46;20504;-72
2024/01/20 01:57:17;;;;;;;20.87;14.77;;;3.40;92.90;;;4.96;63.94;102123.75;3081550;46;20490;-72
2024/01/20 01:59:46;;;;;;;23.27;15.10;;;3.40;93.00;;;4.96;64.02;102113.31;3081880;46;20427;-73
2024/01/20 02:02:14;;;;;;;18.67;14.53;;;3.40;93.00;;;4.93;64.04;102119.56;3081373;46;20467;-72
2024/01/20 02:04:42;;;;;;;22.23;15.70;;;3.40;93.10;;;4.90;64.31;102119.78;3081913;46;20554;-72
2024/01/20 02:07:12;;;;;;;21.97;15.97;;;3.40;93.10;;;4.90;64.64;102118.97;3081852;46;20446;-72
2024/01/20 02:09:41;;;;;;;21.87;15.93;;;3.40;93.10;;;4.91;64.56;102126.69;3081989;46;20482;-72
2024/01/20 02:12:12;;;;;;;22.13;16.43;;;3.40;93.10;;;4.90;64.47;102117.16;3082040;46;21059;-71
2024/01/20 02:14:44;;;;;;;22.70;16.07;;;3.40;93.10;;;4.90;64.32;102132.81;3081805;46;21032;-72
2024/01/20 02:17:12;;;;;;;23.63;15.67;;;3.40;93.20;;;4.92;64.55;102122.31;3081725;46;20526;-72
2024/01/20 02:19:41;;;;;;;21.53;15.10;;;3.30;93.60;;;4.90;64.38;102113.75;3081914;46;20440;-72
2024/01/20 02:22:15;;;;;;;25.57;15.40;;;3.40;93.30;;;4.89;64.31;102122.50;3082057;46;20527;-72
2024/01/20 02:24:50;;;;;;;21.77;16.27;;;3.30;93.20;;;4.87;64.40;102125.22;3081881;46;20488;-72
2024/01/20 02:27:19;;;;;;;22.03;14.53;;;3.30;93.50;;;4.89;64.73;102132.94;3081559;46;20577;-72
2024/01/20 02:29:47;;;;;;;20.17;14.80;;;3.30;93.30;;;4.88;64.73;102132.09;3081560;46;20564;-72
2024/01/20 02:32:16;;;;;;;17.17;14.70;;;3.40;93.40;;;4.87;65.04;102133.03;3081733;46;20442;-72
2024/01/20 02:34:44;;;;;;;22.30;14.87;;;3.40;93.30;;;4.89;64.68;102139.00;3081911;46;20457;-72
2024/01/20 02:37:13;;;;;;;21.47;14.60;;;3.40;93.40;;;4.88;64.44;102142.53;3081428;46;20944;-71
2024/01/20 02:39:41;;;;;;;19.00;14.30;;;3.30;93.30;;;4.89;64.63;102139.00;3081648;46;20461;-72
2024/01/20 02:42:10;;;;;;;20.37;14.53;;;3.30;93.30;;;4.90;64.68;102139.84;3081725;46;20523;-72
2024/01/20 02:44:39;;;;;;;23.77;15.87;;;3.30;93.40;;;4.90;64.54;102145.06;3081657;46;20434;-71
2024/01/20 02:47:08;;;;;;;23.83;15.67;;;3.30;93.30;;;4.89;64.42;102139.00;3081313;46;20498;-72
2024/01/20 02:49:36;;;;;;;18.93;14.50;;;3.30;93.30;;;4.89;64.77;102148.59;3081562;46;20577;-71
2024/01/20 02:52:05;;;;;;;24.20;16.77;;;3.30;93.30;;;4.88;64.51;102158.16;3081793;46;20521;-72
2024/01/20 02:54:34;;;;;;;20.13;14.90;;;3.30;93.30;;;4.87;64.58;102151.31;3081508;46;20459;-71
2024/01/20 02:57:03;;;;;;;27.07;16.23;;;3.30;93.40;;;4.85;64.46;102153.16;3080968;46;20544;-72
2024/01/20 02:59:31;;;;;;;21.03;16.00;;;3.30;93.30;;;4.82;64.43;102151.59;3081531;46;20529;-72
2024/01/20 03:02:03;;;;;;;20.60;15.37;;;3.30;93.30;;;4.81;64.63;102149.09;3081333;46;20602;-71
2024/01/20 03:04:32;;;;;;;23.27;16.90;;;3.30;93.30;;;4.77;64.77;102151.09;3081182;46;21027;-71
2024/01/20 03:07:00;;;;;;;27.07;17.57;;;3.30;93.30;;;4.75;64.74;102152.13;3081116;46;20431;-72
2024/01/20 03:09:28;;;;;;;25.73;16.43;;;3.20;93.30;;;4.75;64.78;102152.13;3081655;46;21125;-71
2024/01/20 03:11:58;;;;;;;28.97;16.80;;;3.20;93.30;;;4.74;64.82;102150.44;3081321;46;20503;-72
2024/01/20 03:14:27;;;;;;;26.70;18.13;;;3.20;93.30;;;4.70;64.81;102155.03;3081145;46;20438;-72
2024/01/20 03:16:55;;;;;;;23.67;15.70;;;3.20;93.30;;;4.71;64.72;102161.91;3080968;46;20557;-71
2024/01/20 03:19:24;;;;;;;23.07;16.73;;;3.20;93.40;;;4.69;64.76;102153.34;3081412;46;20511;-72
2024/01/20 03:21:52;;;;;;;24.40;16.70;;;3.20;93.40;;;4.69;64.79;102152.50;3081096;46;21015;-72
2024/01/20 03:24:21;;;;;;;26.53;18.57;;;3.20;93.40;;;4.67;64.85;102159.59;3080983;46;20509;-71
2024/01/20 03:26:50;;;;;;;24.80;17.87;;;3.10;93.40;;;4.68;64.83;102158.69;3080828;46;20999;-72
2024/01/20 03:29:20;;;;;;;23.43;16.83;;;3.10;93.40;;;4.68;64.84;102161.28;3081179;46;20434;-72
2024/01/20 03:31:48;;;;;;;26.17;15.87;;;3.10;93.50;;;4.69;64.94;102155.13;3080949;46;20432;-71
2024/01/20 03:34:16;;;;;;;18.97;15.33;;;3.10;93.40;;;4.67;64.93;102162.22;3081197;46;21120;-72
2024/01/20 03:36:46;;;;;;;24.77;17.43;;;3.10;93.50;;;4.70;64.86;102162.03;3081097;46;20437;-72
2024/01/20 03:39:14;;;;;;;22.40;16.60;;;3.10;93.50;;;4.70;64.86;102164.63;3081118;46;20431;-71
2024/01/20 03:41:43;;;;;;;26.27;17.47;;;3.10;93.50;;;4.70;64.92;102162.84;3080748;46;20460;-71
2024/01/20 03:44:12;;;;;;;23.67;17.17;;;3.10;93.50;;;4.71;64.73;102168.88;3081205;46;20558;-72
2024/01/20 03:46:40;;;;;;;25.57;15.03;;;3.10;93.50;;;4.71;64.64;102161.06;3080806;46;20458;-73
2024/01/20 03:49:08;;;;;;;27.90;17.20;;;3.10;93.50;;;4.73;65.00;102164.44;3080635;46;20957;-71
2024/01/20 03:51:37;;;;;;;23.00;15.03;;;3.10;93.50;;;4.71;64.83;102169.72;3080959;46;20604;-72
2024/01/20 03:54:05;;;;;;;27.77;17.07;;;3.10;93.50;;;4.70;64.76;102165.47;3080871;46;20448;-72
2024/01/20 03:56:42;;;;;;;22.23;15.40;;;3.10;93.40;;;4.68;64.70;102171.72;3080423;46;20427;-71
2024/01/20 03:59:11;;;;;;;18.43;14.93;;;3.10;93.50;;;4.70;64.99;102180.28;3080495;46;20476;-72
2024/01/20 04:01:39;;;;;;;24.53;16.07;;;3.10;93.40;;;4.69;64.88;102183.81;3080804;46;20443;-72
2024/01/20 04:04:07;;;;;;;23.73;15.10;;;3.10;93.40;;;4.67;64.83;102189.13;3080928;46;20514;-71
2024/01/20 04:06:36;;;;;;;23.90;16.67;;;3.10;93.40;;;4.65;64.95;102191.00;3080466;46;21177;-71
2024/01/20 04:09:04;;;;;;;23.10;16.33;;;3.10;93.30;;;4.63;64.89;102192.03;3079459;46;20463;-72
2024/01/20 04:11:33;;;;;;;22.73;15.23;;;3.10;93.40;;;4.63;64.93;102190.28;3080560;46;20576;-72
2024/01/20 04:14:01;;;;;;;22.77;16.17;;;3.10;93.40;;;4.64;64.89;102201.50;3080673;46;20450;-72
2024/01/20 04:16:30;;;;;;;26.90;16.03;;;3.10;93.40;;;4.65;64.89;102197.97;3080480;46;20433;-71
2024/01/20 04:18:59;;;;;;;22.73;15.07;;;3.10;93.40;;;4.63;64.76;102199.84;3080220;46;20458;-70
2024/01/20 04:21:27;;;;;;;24.40;16.30;;;3.10;93.40;;;4.64;64.62;102201.50;3080319;46;20430;-72
2024/01/20 04:23:56;;;;;;;22.80;15.47;;;3.10;93.40;;;4.64;64.61;102196.28;3080638;46;21233;-72
2024/01/20 04:26:24;;;;;;;23.63;15.23;;;3.10;93.30;;;4.62;64.78;102204.22;3081807;46;20529;-71
2024/01/20 04:28:52;;;;;;;27.67;15.50;;;3.10;93.30;;;4.60;64.67;102194.84;3082550;46;21077;-72
2024/01/20 04:31:21;;;;;;;24.50;15.27;;;3.10;93.30;;;4.61;64.83;102210.38;3082848;46;20462;-71
2024/01/20 04:33:49;;;;;;;23.20;16.20;;;3.10;93.30;;;4.61;64.64;102204.34;3083118;46;20428;-72
2024/01/20 04:36:18;;;;;;;24.03;16.47;;;3.10;93.30;;;4.61;64.76;102212.16;3082941;46;20451;-71
2024/01/20 04:38:46;;;;;;;29.00;18.43;;;3.00;93.20;;;4.60;64.64;102210.47;3082536;46;20449;-72
2024/01/20 04:41:14;;;;;;;21.57;15.80;;;3.00;93.20;;;4.58;64.79;102207.97;3082867;46;20437;-71
2024/01/20 04:43:43;;;;;;;23.13;15.90;;;3.00;93.10;;;4.56;64.69;102214.22;3082923;46;20462;-71
2024/01/20 04:46:11;;;;;;;27.90;17.50;;;3.00;93.10;;;4.55;64.44;102208.16;3083130;46;20439;-72
2024/01/20 04:48:40;;;;;;;29.20;18.33;;;3.00;93.10;;;4.52;64.42;102218.78;3082318;46;20463;-72
2024/01/20 04:51:08;;;;;;;25.20;17.30;;;3.00;93.10;;;4.50;64.59;102219.81;3082882;46;20567;-72
2024/01/20 04:53:37;;;;;;;27.90;16.57;;;3.00;93.10;;;4.46;64.50;102218.34;3082484;46;20492;-72
2024/01/20 04:56:06;;;;;;;29.03;18.47;;;3.00;93.00;;;4.43;64.68;102219.38;3082649;46;20526;-72
2024/01/20 04:58:34;;;;;;;30.73;17.83;;;2.90;93.00;;;4.41;64.61;102229.06;3081127;46;20992;-71
2024/01/20 05:01:03;;;;;;;22.47;15.83;;;2.90;93.00;;;4.40;64.65;102223.94;3082833;46;20434;-72
2024/01/20 05:03:31;;;;;;;24.37;16.40;;;2.90;93.00;;;4.40;64.51;102230.00;3082533;46;20529;-71
2024/01/20 05:06:00;;;;;;;24.43;16.97;;;2.90;93.10;;;4.40;64.59;102235.22;3082957;46;20538;-71
2024/01/20 05:08:28;;;;;;;31.10;17.63;;;2.90;93.20;;;4.40;64.74;102236.97;3082315;46;21026;-72
2024/01/20 05:10:57;;;;;;;29.80;18.17;;;2.90;93.20;;;4.35;64.60;102236.47;3082700;46;20434;-72
2024/01/20 05:13:26;;;;;;;26.13;18.47;;;2.90;93.10;;;4.32;64.69;102237.50;3082647;46;20434;-71
2024/01/20 05:15:54;;;;;;;27.33;17.73;;;2.80;93.10;;;4.29;64.83;102236.84;3082760;46;20545;-71
2024/01/20 05:18:23;;;;;;;29.73;17.60;;;2.80;93.10;;;4.27;64.47;102244.75;3082212;46;20446;-71
2024/01/20 05:20:51;;;;;;;28.10;18.37;;;2.80;93.00;;;4.26;64.55;102248.28;3082761;46;20467;-72
2024/01/20 05:23:20;;;;;;;44.07;24.30;;;2.80;93.20;;;4.25;64.71;102240.56;3082293;46;20439;-71
2024/01/20 05:25:48;;;;;;;33.83;18.47;;;2.70;93.10;;;4.23;64.60;102247.66;3082367;46;20552;-71
2024/01/20 05:28:16;;;;;;;30.67;17.83;;;2.70;93.10;;;4.20;64.94;102243.47;3081935;46;20442;-70
2024/01/20 05:30:45;;;;;;;42.83;19.23;;;2.70;93.10;;;4.18;64.68;102260.13;3082728;46;20432;-71
2024/01/20 05:33:13;;;;;;;31.50;19.20;;;2.70;93.10;;;4.17;64.82;102258.44;3082361;46;20426;-72
2024/01/20 05:35:42;;;;;;;30.30;17.87;;;2.70;93.10;;;4.18;64.70;102260.97;3082487;46;20462;-71
2024/01/20 05:38:10;;;;;;;37.00;19.70;;;2.70;93.30;;;4.20;64.74;102263.47;3080651;46;21023;-72
2024/01/20 05:40:39;;;;;;;31.80;18.90;;;2.70;93.30;;;4.21;64.78;102255.53;3082439;46;20438;-71
2024/01/20 05:43:07;;;;;;;33.30;18.07;;;2.60;93.30;;;4.22;64.71;102259.00;3081970;46;20431;-72
2024/01/20 05:45:35;;;;;;;31.73;18.73;;;2.70;93.40;;;4.27;65.08;102269.97;3082218;46;21035;-72
2024/01/20 05:48:04;;;;;;;37.40;19.23;;;2.70;93.50;;;4.28;64.90;102256.03;3081863;46;20580;-71
2024/01/20 05:50:33;;;;;;;30.13;17.87;;;2.70;93.50;;;4.30;64.96;102265.41;3082181;46;20924;-72
2024/01/20 05:53:01;;;;;;;29.83;17.20;;;2.70;93.50;;;4.32;64.84;102278.34;3082226;46;20434;-71
2024/01/20 05:55:29;;;;;;;28.27;18.07;;;2.70;93.40;;;4.34;64.93;102266.03;3081956;46;20497;-71
2024/01/20 05:57:58;;;;;;;34.27;19.53;;;2.70;93.40;;;4.35;64.52;102278.16;3081289;46;20509;-72
2024/01/20 06:00:26;;;;;;;27.83;17.27;;;2.70;93.30;;;4.37;64.69;102273.69;3082009;46;20427;-72
2024/01/20 06:02:55;;;;;;;33.93;19.03;;;2.70;93.30;;;4.38;64.71;102272.72;3082134;46;20431;-71
2024/01/20 06:05:23;;;;;;;31.30;18.13;;;2.70;93.20;;;4.38;64.64;102283.16;3082078;46;20457;-72
2024/01/20 06:07:52;;;;;;;33.30;18.43;;;2.80;93.20;;;4.35;64.54;102278.16;3081559;46;20446;-71
2024/01/20 06:10:20;;;;;;;31.50;18.30;;;2.70;93.10;;;4.33;64.49;102280.00;3081993;46;20427;-71
2024/01/20 06:12:48;;;;;;;25.87;16.83;;;2.70;93.10;;;4.31;64.65;102281.88;3082156;46;20488;-72
2024/01/20 06:15:17;;;;;;;31.90;17.90;;;2.70;93.10;;;4.29;64.70;102278.53;3082107;46;20934;-72
2024/01/20 06:17:45;;;;;;;34.83;18.70;;;2.70;93.10;;;4.28;64.65;102282.06;3081632;46;21002;-71
2024/01/20 06:20:15;;;;;;;29.20;17.47;;;2.70;93.10;;;4.27;64.55;102281.22;3081978;46;20472;-72
2024/01/20 06:22:43;;;;;;;29.97;17.23;;;2.70;93.10;;;4.27;64.46;102290.81;3081681;46;20457;-72
2024/01/20 06:25:13;;;;;;;31.47;18.63;;;2.70;93.00;;;4.19;64.52;102287.84;3082017;46;20427;-72
2024/01/20 06:27:41;;;;;;;29.60;16.17;;;2.70;92.90;;;4.08;64.69;102281.53;3081097;46;20450;-72
2024/01/20 06:30:11;;;;;;;30.80;18.27;;;2.70;93.00;;;4.07;64.82;102295.47;3081658;46;21002;-72
2024/01/20 06:32:39;;;;;;;30.70;18.43;;;2.70;92.90;;;4.05;65.26;102296.50;3081872;46;21154;-71
2024/01/20 06:35:08;;;;;;;33.30;17.73;;;2.70;92.90;;;4.04;65.04;102300.88;3081892;46;20521;-71
2024/01/20 06:37:36;;;;;;;31.33;17.23;;;2.60;92.90;;;4.00;64.78;102296.78;3081512;46;20444;-71
2024/01/20 06:40:06;;;;;;;33.60;18.13;;;2.60;92.90;;;3.97;65.17;102302.19;3081725;46;20462;-72
2024/01/20 06:42:34;;;;;;;34.63;19.57;;;2.60;93.00;;;3.90;65.06;102307.84;3081469;46;20467;-72
2024/01/20 06:45:03;;;;;;;34.27;18.90;;;2.60;93.10;;;3.85;65.72;102310.72;3081584;46;20582;-71
2024/01/20 06:47:32;;;;;;;32.80;18.67;;;2.50;93.00;;;3.77;65.67;102307.78;3081288;46;20450;-71
2024/01/20 06:50:01;;;;;;;33.40;18.97;;;2.50;93.10;;;3.80;65.63;102311.97;3081572;46;20438;-71
2024/01/20 06:52:31;;;;;;;36.50;19.40;;;2.50;93.10;;;3.83;65.53;102317.81;3081578;46;21011;-72
2024/01/20 06:54:59;;;;;;;33.23;18.20;;;2.50;93.10;;;3.82;65.34;102330.94;3081640;46;20487;-72
2024/01/20 06:57:29;;;;;;;33.50;17.90;;;2.40;93.10;;;3.84;65.13;102319.50;3080781;46;21125;-72
2024/01/20 06:59:58;;;;;;;32.40;18.90;;;2.40;93.20;;;3.84;65.24;102329.91;3081494;46;20438;-72
2024/01/20 07:02:30;;;;;;;36.27;19.33;;;2.40;93.30;;;3.84;65.35;102329.91;3081678;46;20580;-72
2024/01/20 07:04:58;;;;;;;34.00;19.10;;;2.40;93.40;;;3.85;65.41;102331.56;3081564;46;20521;-71
2024/01/20 07:07:29;;;;;;;37.57;19.70;;;2.40;93.40;;;3.79;65.30;102328.50;3080989;46;20479;-71
2024/01/20 07:09:57;;;;;;;34.80;19.33;;;2.40;93.30;;;3.72;65.59;102330.63;3081470;46;21084;-72
2024/01/20 07:12:25;;;;;;;40.07;18.73;;;2.30;93.30;;;3.63;66.24;102343.34;3081363;46;20435;-72
2024/01/20 07:14:56;;;;;;;30.70;18.47;;;2.30;93.40;;;3.54;66.69;102342.16;3081582;46;20519;-72
2024/01/20 07:17:25;;;;;;;33.17;17.43;;;2.30;93.40;;;3.58;66.22;102346.22;3080949;46;20572;-72
2024/01/20 07:19:53;;;;;;;38.43;19.90;;;2.30;93.50;;;3.61;66.61;102343.47;3081495;46;20432;-71
2024/01/20 07:22:22;;;;;;;33.67;19.67;;;2.30;93.70;;;3.61;66.19;102351.28;3081196;46;20459;-71
2024/01/20 07:24:50;;;;;;;33.37;19.50;;;2.20;93.60;;;3.66;66.41;102354.41;3080991;46;20438;-71
2024/01/20 07:27:18;;;;;;;33.47;19.20;;;2.20;93.60;;;3.68;66.41;102355.19;3080652;46;20995;-72
2024/01/20 07:29:47;;;;;;;36.03;19.53;;;2.20;93.70;;;3.70;66.30;102363.75;3080900;46;20466;-71
2024/01/20 07:32:15;;;;;;;35.87;19.57;;;2.30;93.70;;;3.72;66.25;102361.88;3081196;46;20438;-71
2024/01/20 07:34:43;;;;;;;30.83;19.07;;;2.20;93.70;;;3.63;66.51;102365.03;3081217;46;20630;-72
2024/01/20 07:37:12;;;;;;;36.30;18.93;;;2.30;93.70;;;3.67;66.39;102363.91;3080907;46;21043;-72
2024/01/20 07:39:42;;;;;;;30.37;18.60;;;2.20;93.70;;;3.69;66.31;102362.03;3080939;46;20430;-72
2024/01/20 07:42:11;;;;;;;33.73;17.90;;;2.20;93.70;;;3.66;66.19;102362.22;3080957;46;21110;-71
2024/01/20 07:44:39;;;;;;;33.73;19.30;;;2.20;93.70;;;3.68;65.94;102357.78;3080966;46;20542;-71
2024/01/20 07:47:08;;;;;;;32.43;18.00;;;2.20;93.70;;;3.72;66.17;102367.09;3080303;46;20971;-72
2024/01/20 07:49:36;;;;;;;34.07;19.37;;;2.20;93.80;;;3.75;66.28;102364.31;3080901;46;21015;-71
2024/01/20 07:52:05;;;;;;;31.80;18.37;;;2.20;93.90;;;3.76;66.26;102363.38;3080813;46;20434;-71
2024/01/20 07:54:33;;;;;;;35.27;18.67;;;2.20;93.80;;;3.76;66.07;102368.56;3080717;46;20437;-71
2024/01/20 07:57:02;;;;;;;30.47;18.07;;;2.30;93.80;;;3.75;66.03;102361.72;3080187;46;20431;-71
2024/01/20 07:59:30;;;;;;;33.60;18.03;;;2.30;93.80;;;3.79;66.40;102384.00;3080898;46;20441;-71
2024/01/20 08:01:58;;;;;;;34.07;18.50;;;2.30;93.80;;;3.83;66.40;102369.88;3083126;46;20462;-71
2024/01/20 08:04:27;;;;;;;34.97;18.10;;;2.30;93.80;;;3.88;66.53;102382.63;3082987;46;20473;-71
2024/01/20 08:06:55;;;;;;;27.00;14.83;;;2.30;93.90;;;3.85;66.03;102383.63;3082634;46;20438;-71
2024/01/20 08:09:24;;;;;;;28.73;17.07;;;2.40;93.90;;;3.85;66.14;102383.63;3083658;46;20433;-72
2024/01/20 08:11:52;;;;;;;30.80;16.93;;;2.40;93.70;;;3.88;66.09;102393.88;3083215;46;20445;-71
2024/01/20 08:14:20;;;;;;;32.20;16.73;;;2.40;93.60;;;3.93;65.87;102407.47;3083419;46;20445;-71
2024/01/20 08:16:49;;;;;;;31.20;17.10;;;2.40;93.70;;;3.97;65.95;102408.16;3082657;46;20447;-71
2024/01/20 08:19:17;;;;;;;32.23;17.07;;;2.40;93.70;;;3.98;65.82;102418.47;3083109;46;20468;-72
2024/01/20 08:21:46;;;;;;;32.67;17.10;;;2.40;93.70;;;3.97;65.84;102408.97;3083359;46;20437;-71
2024/01/20 08:24:14;;;;;;;32.40;17.50;;;2.50;93.60;;;4.02;66.13;102409.53;3083101;46;21129;-72
2024/01/20 08:26:44;;;;;;;33.37;17.23;;;2.50;93.60;;;4.06;65.48;102407.59;3081792;46;20609;-72
2024/01/20 08:29:12;;;;;;;34.20;16.63;;;2.50;93.60;;;4.08;65.26;102411.78;3082661;46;20458;-72
2024/01/20 08:31:41;;;;;;;27.30;16.77;;;2.50;93.60;;;4.11;65.22;102411.56;3083140;46;20444;-71
2024/01/20 08:34:09;;;;;;;28.30;16.03;;;2.50;93.60;;;4.10;65.50;102409.91;3083025;46;20582;-71
2024/01/20 08:36:38;;;;;;;28.73;16.10;;;2.60;93.60;;;4.13;65.62;102414.13;3083473;46;20545;-71
2024/01/20 08:39:07;;;;;;;32.27;16.20;;;2.60;93.60;;;4.19;65.28;102423.31;3082788;46;21053;-71
2024/01/20 08:41:35;;;;;;;26.03;16.70;;;2.60;93.60;;;4.24;65.42;102411.69;3083009;46;20436;-71
2024/01/20 08:44:03;;;;;;;28.03;15.10;;;2.60;93.60;;;4.31;65.36;102417.38;3083002;46;20438;-71
2024/01/20 08:46:32;;;;;;;26.67;17.37;;;2.70;93.60;;;4.37;65.26;102417.84;3082588;46;20524;-71
2024/01/20 08:49:00;;;;;;;28.50;15.60;;;2.70;93.50;;;4.42;65.00;102421.00;3082450;46;20467;-71
2024/01/20 08:51:28;;;;;;;27.27;15.07;;;2.70;93.50;;;4.48;64.85;102427.59;3082837;46;20560;-71
2024/01/20 08:53:57;;;;;;;32.13;14.60;;;2.80;93.40;;;4.53;64.97;102438.59;3082995;46;20449;-71
2024/01/20 08:56:25;;;;;;;26.03;14.40;;;2.80;93.50;;;4.60;64.69;102435.53;3081738;46;20478;-71
2024/01/20 08:58:54;;;;;;;27.00;14.97;;;2.90;93.50;;;4.66;64.48;102442.13;3082175;46;20459;-72
2024/01/20 09:01:22;;;;;;;26.20;14.83;;;2.90;93.30;;;4.71;64.17;102440.91;3082335;46;20442;-72
2024/01/20 09:03:51;;;;;;;24.60;13.40;;;3.00;93.20;;;4.76;64.16;102440.63;3082489;46;20494;-71
2024/01/20 09:06:19;;;;;;;22.67;13.90;;;3.00;93.10;;;4.81;64.16;102433.34;3082228;46;20466;-71
2024/01/20 09:08:48;;;;;;;23.57;13.00;;;3.10;93.10;;;4.86;63.85;102439.13;3082271;46;21115;-72
2024/01/20 09:11:17;;;;;;;21.80;12.43;;;3.10;93.00;;;4.93;63.76;102437.81;3082056;46;20434;-71
2024/01/20 09:13:46;;;;;;;25.93;14.83;;;3.20;93.00;;;5.01;63.84;102439.94;3082384;46;20438;-72
2024/01/20 09:16:15;;;;;;;26.57;14.13;;;3.20;92.90;;;5.07;63.78;102443.00;3082127;46;20455;-72
2024/01/20 09:18:43;;;;;;;25.70;13.70;;;3.30;92.90;;;5.15;63.78;102443.34;3081666;46;20558;-72
2024/01/20 09:21:12;;;;;;;23.50;13.20;;;3.40;92.80;;;5.21;63.36;102442.94;3082285;46;20454;-71
2024/01/20 09:23:41;;;;;;;28.73;15.17;;;3.40;92.70;;;5.25;62.79;102449.63;3082635;46;20437;-72
2024/01/20 09:26:09;;;;;;;25.67;15.30;;;3.50;92.60;;;5.25;62.70;102454.84;3082385;46;20434;-72
2024/01/20 09:28:38;;;;;;;25.67;14.40;;;3.50;92.50;;;5.20;61.94;102456.94;3081786;46;20473;-75
2024/01/20 09:31:06;;;;;;;24.20;14.63;;;3.60;92.20;;;5.19;62.65;102465.69;3082778;46;20533;-72
2024/01/20 09:33:34;;;;;;;24.33;15.43;;;3.60;92.10;;;5.25;62.50;102460.06;3082201;46;20451;-72
2024/01/20 09:36:04;;;;;;;26.60;14.37;;;3.60;92.10;;;5.30;62.50;102478.91;3082053;46;20446;-72
2024/01/20 09:38:32;;;;;;;32.63;16.73;;;3.60;92.10;;;5.32;62.18;102476.22;3081405;43;21066;-71
2024/01/20 09:41:01;;;;;;;25.03;15.03;;;3.60;92.00;;;5.35;62.15;102482.06;3082126;46;20434;-71
2024/01/20 09:43:29;;;;;;;25.23;14.27;;;3.70;92.00;;;5.39;62.25;102483.56;3082153;46;20438;-71
2024/01/20 09:45:59;;;;;;;24.90;15.73;;;3.70;92.00;;;5.43;62.18;102485.03;3081521;46;20434;-71
2024/01/20 09:48:28;;;;;;;27.17;15.13;;;3.70;92.20;;;5.49;62.00;102489.84;3081748;46;20446;-71
2024/01/20 09:50:58;;;;;;;28.40;14.70;;;3.80;92.10;;;5.57;62.05;102484.13;3082393;46;20479;-72
2024/01/20 09:53:26;;;;;;;22.37;13.53;;;3.80;92.00;;;5.63;61.70;102490.75;3082081;46;20438;-71
2024/01/20 09:55:56;;;;;;;23.00;14.40;;;3.90;92.00;;;5.67;61.59;102492.22;3081260;46;20438;-72
2024/01/20 09:58:28;;;;;;;27.73;14.80;;;3.90;91.90;;;5.69;61.19;102496.41;3080235;46;21011;-72
2024/01/20 10:00:57;;;;;;;25.97;15.53;;;4.00;91.80;;;5.81;61.49;102498.22;3082001;46;20434;-72
2024/01/20 10:03:34;;;;;;;24.70;14.70;;;4.00;91.80;;;6.27;62.03;102492.59;3081098;46;20482;-72
2024/01/20 10:06:03;;;;;;;24.30;14.63;;;4.10;92.30;;;6.85;61.44;102499.91;3081493;46;20569;-71
2024/01/20 10:08:32;;;;;;;24.07;14.53;;;4.30;92.60;;;7.38;61.34;102504.78;3080815;46;20439;-72
2024/01/20 10:11:05;;;;;;;25.23;14.57;;;4.70;92.70;;;7.66;60.06;102499.22;3081478;46;20476;-72
2024/01/20 10:13:33;;;;;;;23.30;14.80;;;5.00;92.30;;;7.92;59.14;102505.16;3081586;46;20931;-72
2024/01/20 10:16:03;;;;;;;20.70;13.93;;;5.30;91.60;;;8.25;57.88;102507.06;3081730;46;20514;-72
2024/01/20 10:18:33;;;;;;;21.40;13.27;;;5.60;90.90;;;8.57;57.49;102502.84;3080605;46;21032;-72